< < Back
Terminal Aerodrome Forecast


Current Version              Previous Versions:   1  2  3  4  5  6  7  8  9  

Terminal Aerodrome Forecast

405
FTUS44 KBMX 221100
TAFTCL
TAF
KTCL 221140Z 2212/2312 35003KT P6SM SCT250
     FM221900 15009KT P6SM BKN035
     FM222000 13006KT P6SM BKN025 BKN150
     FM230300 14008KT P6SM OVC020
     FM230900 10009KT P6SM SHRA OVC020=

Latest METAR

583
SAUS70 KWBC 230200 RRN
MTRTCL
METAR KTCL 230153Z 13006KT 10SM OVC031 18/10 A3011 RMK AO2 SLP195
T01830100


USA.gov is the U.S. government's official web portal to all federal, state and local government web resources and services.